sensor_id;sensor_type;location;lat;lon;timestamp;P1;durP1;ratioP1;P2;durP2;ratioP2
18383;SDS011;9318;48.644;9.456;2023-07-31T00:00:08;0.87;;;0.87;;
18383;SDS011;9318;48.644;9.456;2023-07-31T00:02:35;0.87;;;0.87;;
18383;SDS011;9318;48.644;9.456;2023-07-31T00:05:01;0.80;;;0.80;;
18383;SDS011;9318;48.644;9.456;2023-07-31T00:07:28;0.90;;;0.90;;
18383;SDS011;9318;48.644;9.456;2023-07-31T00:09:55;0.80;;;0.80;;
18383;SDS011;9318;48.644;9.456;2023-07-31T00:12:24;0.90;;;0.90;;
18383;SDS011;9318;48.644;9.456;2023-07-31T00:14:51;0.90;;;0.90;;
18383;SDS011;9318;48.644;9.456;2023-07-31T00:17:17;0.90;;;0.90;;
18383;SDS011;9318;48.644;9.456;2023-07-31T00:19:44;0.90;;;0.90;;
18383;SDS011;9318;48.644;9.456;2023-07-31T00:22:14;0.70;;;0.70;;
18383;SDS011;9318;48.644;9.456;2023-07-31T00:24:40;0.80;;;0.80;;
18383;SDS011;9318;48.644;9.456;2023-07-31T00:27:07;1.00;;;1.00;;
18383;SDS011;9318;48.644;9.456;2023-07-31T00:29:35;1.10;;;1.10;;
18383;SDS011;9318;48.644;9.456;2023-07-31T00:32:02;0.90;;;0.90;;
18383;SDS011;9318;48.644;9.456;2023-07-31T00:34:29;0.80;;;0.80;;
18383;SDS011;9318;48.644;9.456;2023-07-31T00:36:56;0.90;;;0.90;;
18383;SDS011;9318;48.644;9.456;2023-07-31T00:39:22;0.80;;;0.80;;
18383;SDS011;9318;48.644;9.456;2023-07-31T00:41:49;0.80;;;0.80;;
18383;SDS011;9318;48.644;9.456;2023-07-31T00:44:16;0.80;;;0.80;;
18383;SDS011;9318;48.644;9.456;2023-07-31T00:46:44;0.90;;;0.90;;
18383;SDS011;9318;48.644;9.456;2023-07-31T00:49:11;0.93;;;0.93;;
18383;SDS011;9318;48.644;9.456;2023-07-31T00:51:38;0.90;;;0.90;;
18383;SDS011;9318;48.644;9.456;2023-07-31T00:54:05;0.90;;;0.90;;
18383;SDS011;9318;48.644;9.456;2023-07-31T00:56:32;0.90;;;0.90;;
18383;SDS011;9318;48.644;9.456;2023-07-31T00:58:59;0.90;;;0.90;;
18383;SDS011;9318;48.644;9.456;2023-07-31T01:01:26;0.90;;;0.90;;
18383;SDS011;9318;48.644;9.456;2023-07-31T01:03:54;0.90;;;0.90;;
18383;SDS011;9318;48.644;9.456;2023-07-31T01:06:23;0.90;;;0.90;;
18383;SDS011;9318;48.644;9.456;2023-07-31T01:08:58;0.80;;;0.80;;
18383;SDS011;9318;48.644;9.456;2023-07-31T01:11:29;1.00;;;1.00;;
18383;SDS011;9318;48.644;9.456;2023-07-31T01:13:57;1.00;;;1.00;;
18383;SDS011;9318;48.644;9.456;2023-07-31T01:16:25;1.00;;;1.00;;
18383;SDS011;9318;48.644;9.456;2023-07-31T01:18:52;0.90;;;0.90;;
18383;SDS011;9318;48.644;9.456;2023-07-31T01:21:23;0.90;;;0.90;;
18383;SDS011;9318;48.644;9.456;2023-07-31T01:26:52;0.90;;;0.90;;
18383;SDS011;9318;48.644;9.456;2023-07-31T01:29:24;1.00;;;1.00;;
18383;SDS011;9318;48.644;9.456;2023-07-31T01:31:58;0.80;;;0.80;;
18383;SDS011;9318;48.644;9.456;2023-07-31T01:34:28;0.80;;;0.80;;
18383;SDS011;9318;48.644;9.456;2023-07-31T01:36:56;1.00;;;1.00;;
18383;SDS011;9318;48.644;9.456;2023-07-31T01:39:23;0.90;;;0.90;;
18383;SDS011;9318;48.644;9.456;2023-07-31T01:41:51;0.90;;;0.90;;
18383;SDS011;9318;48.644;9.456;2023-07-31T01:44:18;0.90;;;0.90;;
18383;SDS011;9318;48.644;9.456;2023-07-31T01:46:44;1.00;;;1.00;;
18383;SDS011;9318;48.644;9.456;2023-07-31T01:49:11;0.90;;;0.90;;
18383;SDS011;9318;48.644;9.456;2023-07-31T01:51:38;1.00;;;1.00;;
18383;SDS011;9318;48.644;9.456;2023-07-31T01:54:05;0.90;;;0.90;;
18383;SDS011;9318;48.644;9.456;2023-07-31T01:56:32;0.90;;;0.90;;
18383;SDS011;9318;48.644;9.456;2023-07-31T01:59:00;1.00;;;1.00;;
18383;SDS011;9318;48.644;9.456;2023-07-31T02:01:27;0.80;;;0.80;;
18383;SDS011;9318;48.644;9.456;2023-07-31T02:03:53;0.90;;;0.90;;
18383;SDS011;9318;48.644;9.456;2023-07-31T02:06:20;0.90;;;0.90;;
18383;SDS011;9318;48.644;9.456;2023-07-31T02:08:47;0.90;;;0.90;;
18383;SDS011;9318;48.644;9.456;2023-07-31T02:11:14;0.80;;;0.80;;
18383;SDS011;9318;48.644;9.456;2023-07-31T02:13:41;0.90;;;0.90;;
18383;SDS011;9318;48.644;9.456;2023-07-31T02:16:09;0.90;;;0.90;;
18383;SDS011;9318;48.644;9.456;2023-07-31T02:18:35;0.97;;;0.97;;
18383;SDS011;9318;48.644;9.456;2023-07-31T02:21:02;0.83;;;0.83;;
18383;SDS011;9318;48.644;9.456;2023-07-31T02:23:29;0.90;;;0.90;;
18383;SDS011;9318;48.644;9.456;2023-07-31T02:25:56;1.00;;;1.00;;
18383;SDS011;9318;48.644;9.456;2023-07-31T02:28:23;1.00;;;1.00;;
18383;SDS011;9318;48.644;9.456;2023-07-31T02:30:49;0.90;;;0.90;;
18383;SDS011;9318;48.644;9.456;2023-07-31T02:33:18;1.00;;;1.00;;
18383;SDS011;9318;48.644;9.456;2023-07-31T02:35:44;0.90;;;0.90;;
18383;SDS011;9318;48.644;9.456;2023-07-31T02:38:11;1.00;;;1.00;;
18383;SDS011;9318;48.644;9.456;2023-07-31T02:40:38;0.93;;;0.93;;
18383;SDS011;9318;48.644;9.456;2023-07-31T02:43:06;0.83;;;0.83;;
18383;SDS011;9318;48.644;9.456;2023-07-31T02:45:32;1.00;;;1.00;;
18383;SDS011;9318;48.644;9.456;2023-07-31T02:47:59;0.80;;;0.80;;
18383;SDS011;9318;48.644;9.456;2023-07-31T02:50:28;0.80;;;0.80;;
18383;SDS011;9318;48.644;9.456;2023-07-31T02:52:54;1.00;;;1.00;;
18383;SDS011;9318;48.644;9.456;2023-07-31T02:55:21;0.80;;;0.80;;
18383;SDS011;9318;48.644;9.456;2023-07-31T02:57:48;0.90;;;0.90;;
18383;SDS011;9318;48.644;9.456;2023-07-31T03:00:15;0.90;;;0.90;;
18383;SDS011;9318;48.644;9.456;2023-07-31T03:02:41;1.00;;;1.00;;
18383;SDS011;9318;48.644;9.456;2023-07-31T03:05:08;1.00;;;1.00;;
18383;SDS011;9318;48.644;9.456;2023-07-31T03:07:36;0.90;;;0.90;;
18383;SDS011;9318;48.644;9.456;2023-07-31T03:10:03;1.00;;;1.00;;
18383;SDS011;9318;48.644;9.456;2023-07-31T03:12:30;1.00;;;1.00;;
18383;SDS011;9318;48.644;9.456;2023-07-31T03:14:57;0.90;;;0.90;;
18383;SDS011;9318;48.644;9.456;2023-07-31T03:17:24;1.00;;;1.00;;
18383;SDS011;9318;48.644;9.456;2023-07-31T03:19:50;0.77;;;0.77;;
18383;SDS011;9318;48.644;9.456;2023-07-31T03:22:17;0.90;;;0.90;;
18383;SDS011;9318;48.644;9.456;2023-07-31T03:24:45;0.90;;;0.90;;
18383;SDS011;9318;48.644;9.456;2023-07-31T03:27:12;1.10;;;1.10;;
18383;SDS011;9318;48.644;9.456;2023-07-31T03:29:39;0.87;;;0.87;;
18383;SDS011;9318;48.644;9.456;2023-07-31T03:32:06;1.00;;;1.00;;
18383;SDS011;9318;48.644;9.456;2023-07-31T03:34:33;1.30;;;1.30;;
18383;SDS011;9318;48.644;9.456;2023-07-31T03:36:59;1.10;;;1.10;;
18383;SDS011;9318;48.644;9.456;2023-07-31T03:39:26;0.80;;;0.80;;
18383;SDS011;9318;48.644;9.456;2023-07-31T03:41:54;1.00;;;1.00;;
18383;SDS011;9318;48.644;9.456;2023-07-31T03:44:21;1.10;;;1.10;;
18383;SDS011;9318;48.644;9.456;2023-07-31T03:46:48;1.00;;;1.00;;
18383;SDS011;9318;48.644;9.456;2023-07-31T03:49:14;0.93;;;0.93;;
18383;SDS011;9318;48.644;9.456;2023-07-31T03:51:41;1.00;;;1.00;;
18383;SDS011;9318;48.644;9.456;2023-07-31T03:54:08;1.00;;;1.00;;
18383;SDS011;9318;48.644;9.456;2023-07-31T03:56:35;1.00;;;1.00;;
18383;SDS011;9318;48.644;9.456;2023-07-31T03:59:04;1.00;;;1.00;;
18383;SDS011;9318;48.644;9.456;2023-07-31T04:01:31;0.93;;;0.93;;
18383;SDS011;9318;48.644;9.456;2023-07-31T04:03:58;0.97;;;0.97;;
18383;SDS011;9318;48.644;9.456;2023-07-31T04:06:24;1.10;;;1.10;;
18383;SDS011;9318;48.644;9.456;2023-07-31T04:08:51;1.00;;;1.00;;
18383;SDS011;9318;48.644;9.456;2023-07-31T04:11:18;0.80;;;0.80;;
18383;SDS011;9318;48.644;9.456;2023-07-31T04:13:44;0.90;;;0.90;;
18383;SDS011;9318;48.644;9.456;2023-07-31T04:16:12;1.10;;;1.10;;
18383;SDS011;9318;48.644;9.456;2023-07-31T04:18:39;1.00;;;1.00;;
18383;SDS011;9318;48.644;9.456;2023-07-31T04:21:07;1.00;;;1.00;;
18383;SDS011;9318;48.644;9.456;2023-07-31T04:23:35;0.90;;;0.90;;
18383;SDS011;9318;48.644;9.456;2023-07-31T04:26:01;0.90;;;0.90;;
18383;SDS011;9318;48.644;9.456;2023-07-31T04:28:34;1.00;;;1.00;;
18383;SDS011;9318;48.644;9.456;2023-07-31T04:31:01;1.00;;;1.00;;
18383;SDS011;9318;48.644;9.456;2023-07-31T04:33:29;0.90;;;0.90;;
18383;SDS011;9318;48.644;9.456;2023-07-31T04:35:56;0.95;;;0.95;;
18383;SDS011;9318;48.644;9.456;2023-07-31T04:38:23;1.00;;;1.00;;
18383;SDS011;9318;48.644;9.456;2023-07-31T04:40:49;0.97;;;0.97;;
18383;SDS011;9318;48.644;9.456;2023-07-31T04:43:16;0.90;;;0.90;;
18383;SDS011;9318;48.644;9.456;2023-07-31T04:45:45;0.90;;;0.90;;
18383;SDS011;9318;48.644;9.456;2023-07-31T04:48:12;0.90;;;0.90;;
18383;SDS011;9318;48.644;9.456;2023-07-31T04:50:41;0.90;;;0.90;;
18383;SDS011;9318;48.644;9.456;2023-07-31T04:53:07;0.70;;;0.70;;
18383;SDS011;9318;48.644;9.456;2023-07-31T04:55:34;0.90;;;0.90;;
18383;SDS011;9318;48.644;9.456;2023-07-31T04:58:01;0.83;;;0.83;;
18383;SDS011;9318;48.644;9.456;2023-07-31T05:00:28;1.00;;;1.00;;
18383;SDS011;9318;48.644;9.456;2023-07-31T05:02:54;0.90;;;0.90;;
18383;SDS011;9318;48.644;9.456;2023-07-31T05:05:21;0.90;;;0.90;;
18383;SDS011;9318;48.644;9.456;2023-07-31T05:07:49;0.90;;;0.90;;
18383;SDS011;9318;48.644;9.456;2023-07-31T05:10:16;0.80;;;0.80;;
18383;SDS011;9318;48.644;9.456;2023-07-31T05:12:43;0.83;;;0.83;;
18383;SDS011;9318;48.644;9.456;2023-07-31T05:15:09;0.90;;;0.90;;
18383;SDS011;9318;48.644;9.456;2023-07-31T05:17:36;0.80;;;0.80;;
18383;SDS011;9318;48.644;9.456;2023-07-31T05:20:03;0.85;;;0.85;;
18383;SDS011;9318;48.644;9.456;2023-07-31T05:22:31;0.90;;;0.90;;
18383;SDS011;9318;48.644;9.456;2023-07-31T05:24:59;0.80;;;0.80;;
18383;SDS011;9318;48.644;9.456;2023-07-31T05:27:25;0.70;;;0.70;;
18383;SDS011;9318;48.644;9.456;2023-07-31T05:29:52;0.80;;;0.80;;
18383;SDS011;9318;48.644;9.456;2023-07-31T05:32:19;0.90;;;0.90;;
18383;SDS011;9318;48.644;9.456;2023-07-31T05:34:46;0.90;;;0.90;;
18383;SDS011;9318;48.644;9.456;2023-07-31T05:37:13;0.98;;;0.98;;
18383;SDS011;9318;48.644;9.456;2023-07-31T05:39:40;0.80;;;0.80;;
18383;SDS011;9318;48.644;9.456;2023-07-31T05:42:08;0.80;;;0.80;;
18383;SDS011;9318;48.644;9.456;2023-07-31T05:44:35;0.85;;;0.85;;
18383;SDS011;9318;48.644;9.456;2023-07-31T05:47:01;0.70;;;0.70;;
18383;SDS011;9318;48.644;9.456;2023-07-31T05:49:28;0.80;;;0.80;;
18383;SDS011;9318;48.644;9.456;2023-07-31T05:51:55;0.70;;;0.70;;
18383;SDS011;9318;48.644;9.456;2023-07-31T05:54:22;0.75;;;0.75;;
18383;SDS011;9318;48.644;9.456;2023-07-31T05:56:48;0.70;;;0.70;;
18383;SDS011;9318;48.644;9.456;2023-07-31T05:59:16;0.60;;;0.60;;
18383;SDS011;9318;48.644;9.456;2023-07-31T06:01:43;0.77;;;0.77;;
18383;SDS011;9318;48.644;9.456;2023-07-31T06:04:10;0.70;;;0.70;;
18383;SDS011;9318;48.644;9.456;2023-07-31T06:06:37;0.65;;;0.65;;
18383;SDS011;9318;48.644;9.456;2023-07-31T06:09:03;0.70;;;0.70;;
18383;SDS011;9318;48.644;9.456;2023-07-31T06:11:30;0.60;;;0.60;;
18383;SDS011;9318;48.644;9.456;2023-07-31T06:13:57;0.60;;;0.60;;
18383;SDS011;9318;48.644;9.456;2023-07-31T06:16:25;0.75;;;0.75;;
18383;SDS011;9318;48.644;9.456;2023-07-31T06:18:52;0.60;;;0.60;;
18383;SDS011;9318;48.644;9.456;2023-07-31T06:21:19;0.60;;;0.60;;
18383;SDS011;9318;48.644;9.456;2023-07-31T06:23:46;0.60;;;0.60;;
18383;SDS011;9318;48.644;9.456;2023-07-31T06:26:12;0.50;;;0.50;;
18383;SDS011;9318;48.644;9.456;2023-07-31T06:28:39;0.50;;;0.50;;
18383;SDS011;9318;48.644;9.456;2023-07-31T06:31:06;0.60;;;0.60;;
18383;SDS011;9318;48.644;9.456;2023-07-31T06:33:34;0.50;;;0.50;;
18383;SDS011;9318;48.644;9.456;2023-07-31T06:36:01;0.50;;;0.50;;
18383;SDS011;9318;48.644;9.456;2023-07-31T06:38:28;0.50;;;0.50;;
18383;SDS011;9318;48.644;9.456;2023-07-31T06:40:54;0.52;;;0.52;;
18383;SDS011;9318;48.644;9.456;2023-07-31T06:43:21;0.52;;;0.52;;
18383;SDS011;9318;48.644;9.456;2023-07-31T06:45:48;0.40;;;0.40;;
18383;SDS011;9318;48.644;9.456;2023-07-31T06:48:16;0.50;;;0.50;;
18383;SDS011;9318;48.644;9.456;2023-07-31T06:50:44;0.50;;;0.50;;
18383;SDS011;9318;48.644;9.456;2023-07-31T06:53:11;0.40;;;0.40;;
18383;SDS011;9318;48.644;9.456;2023-07-31T06:55:37;0.40;;;0.40;;
18383;SDS011;9318;48.644;9.456;2023-07-31T06:58:04;0.40;;;0.40;;
18383;SDS011;9318;48.644;9.456;2023-07-31T07:00:31;0.50;;;0.50;;
18383;SDS011;9318;48.644;9.456;2023-07-31T07:02:58;0.50;;;0.50;;
18383;SDS011;9318;48.644;9.456;2023-07-31T07:05:25;0.50;;;0.50;;
18383;SDS011;9318;48.644;9.456;2023-07-31T07:07:53;0.50;;;0.50;;
18383;SDS011;9318;48.644;9.456;2023-07-31T07:10:20;0.50;;;0.50;;
18383;SDS011;9318;48.644;9.456;2023-07-31T07:12:47;0.50;;;0.50;;
18383;SDS011;9318;48.644;9.456;2023-07-31T07:15:14;0.50;;;0.50;;
18383;SDS011;9318;48.644;9.456;2023-07-31T07:17:41;0.50;;;0.50;;
18383;SDS011;9318;48.644;9.456;2023-07-31T07:20:08;0.40;;;0.40;;
18383;SDS011;9318;48.644;9.456;2023-07-31T07:22:35;0.40;;;0.40;;
18383;SDS011;9318;48.644;9.456;2023-07-31T07:25:03;0.50;;;0.50;;
18383;SDS011;9318;48.644;9.456;2023-07-31T07:27:32;0.60;;;0.60;;
18383;SDS011;9318;48.644;9.456;2023-07-31T07:29:59;0.45;;;0.45;;
18383;SDS011;9318;48.644;9.456;2023-07-31T07:32:26;0.40;;;0.40;;
18383;SDS011;9318;48.644;9.456;2023-07-31T07:34:52;0.45;;;0.45;;
18383;SDS011;9318;48.644;9.456;2023-07-31T07:37:19;0.50;;;0.50;;
18383;SDS011;9318;48.644;9.456;2023-07-31T07:39:46;0.40;;;0.40;;
18383;SDS011;9318;48.644;9.456;2023-07-31T07:42:14;0.45;;;0.45;;
18383;SDS011;9318;48.644;9.456;2023-07-31T07:44:41;0.60;;;0.60;;
18383;SDS011;9318;48.644;9.456;2023-07-31T07:47:08;0.50;;;0.50;;
18383;SDS011;9318;48.644;9.456;2023-07-31T07:49:34;0.55;;;0.55;;
18383;SDS011;9318;48.644;9.456;2023-07-31T07:52:01;0.60;;;0.60;;
18383;SDS011;9318;48.644;9.456;2023-07-31T07:54:29;0.60;;;0.60;;
18383;SDS011;9318;48.644;9.456;2023-07-31T07:56:56;0.60;;;0.60;;
18383;SDS011;9318;48.644;9.456;2023-07-31T07:59:24;0.60;;;0.60;;
18383;SDS011;9318;48.644;9.456;2023-07-31T08:01:51;0.32;;;0.32;;
18383;SDS011;9318;48.644;9.456;2023-07-31T08:04:18;0.50;;;0.50;;
18383;SDS011;9318;48.644;9.456;2023-07-31T08:06:45;0.60;;;0.60;;
18383;SDS011;9318;48.644;9.456;2023-07-31T08:09:11;0.60;;;0.60;;
18383;SDS011;9318;48.644;9.456;2023-07-31T08:11:38;0.45;;;0.45;;
18383;SDS011;9318;48.644;9.456;2023-07-31T08:14:05;0.57;;;0.57;;
18383;SDS011;9318;48.644;9.456;2023-07-31T08:16:33;0.50;;;0.50;;
18383;SDS011;9318;48.644;9.456;2023-07-31T08:19:00;0.50;;;0.50;;
18383;SDS011;9318;48.644;9.456;2023-07-31T08:21:26;0.55;;;0.55;;
18383;SDS011;9318;48.644;9.456;2023-07-31T08:23:53;0.50;;;0.50;;
18383;SDS011;9318;48.644;9.456;2023-07-31T08:26:20;0.40;;;0.40;;
18383;SDS011;9318;48.644;9.456;2023-07-31T08:28:47;0.45;;;0.45;;
18383;SDS011;9318;48.644;9.456;2023-07-31T08:31:13;0.35;;;0.35;;
18383;SDS011;9318;48.644;9.456;2023-07-31T08:33:41;0.38;;;0.38;;
18383;SDS011;9318;48.644;9.456;2023-07-31T08:36:08;0.30;;;0.30;;
18383;SDS011;9318;48.644;9.456;2023-07-31T08:38:35;0.30;;;0.30;;
18383;SDS011;9318;48.644;9.456;2023-07-31T08:41:02;0.40;;;0.40;;
18383;SDS011;9318;48.644;9.456;2023-07-31T08:43:29;0.30;;;0.30;;
18383;SDS011;9318;48.644;9.456;2023-07-31T08:45:56;0.30;;;0.30;;
18383;SDS011;9318;48.644;9.456;2023-07-31T08:48:23;0.30;;;0.30;;
18383;SDS011;9318;48.644;9.456;2023-07-31T08:50:53;0.30;;;0.30;;
18383;SDS011;9318;48.644;9.456;2023-07-31T08:53:19;0.40;;;0.40;;
18383;SDS011;9318;48.644;9.456;2023-07-31T08:55:46;0.20;;;0.20;;
18383;SDS011;9318;48.644;9.456;2023-07-31T08:58:14;0.30;;;0.30;;
18383;SDS011;9318;48.644;9.456;2023-07-31T09:00:43;0.30;;;0.30;;
18383;SDS011;9318;48.644;9.456;2023-07-31T09:03:13;0.30;;;0.30;;
18383;SDS011;9318;48.644;9.456;2023-07-31T09:05:42;0.45;;;0.45;;
18383;SDS011;9318;48.644;9.456;2023-07-31T09:08:11;0.30;;;0.30;;
18383;SDS011;9318;48.644;9.456;2023-07-31T09:10:42;0.30;;;0.30;;
18383;SDS011;9318;48.644;9.456;2023-07-31T09:13:11;0.30;;;0.30;;
18383;SDS011;9318;48.644;9.456;2023-07-31T09:15:38;0.40;;;0.40;;
18383;SDS011;9318;48.644;9.456;2023-07-31T09:18:05;0.32;;;0.32;;
18383;SDS011;9318;48.644;9.456;2023-07-31T09:20:33;0.40;;;0.40;;
18383;SDS011;9318;48.644;9.456;2023-07-31T09:23:04;0.35;;;0.35;;
18383;SDS011;9318;48.644;9.456;2023-07-31T09:25:34;0.30;;;0.30;;
18383;SDS011;9318;48.644;9.456;2023-07-31T09:28:02;0.40;;;0.40;;
18383;SDS011;9318;48.644;9.456;2023-07-31T09:30:30;0.40;;;0.40;;
18383;SDS011;9318;48.644;9.456;2023-07-31T09:33:09;0.30;;;0.30;;
18383;SDS011;9318;48.644;9.456;2023-07-31T09:35:36;0.40;;;0.40;;
18383;SDS011;9318;48.644;9.456;2023-07-31T09:38:06;0.40;;;0.40;;
18383;SDS011;9318;48.644;9.456;2023-07-31T09:40:36;0.40;;;0.40;;
18383;SDS011;9318;48.644;9.456;2023-07-31T09:43:04;0.40;;;0.40;;
18383;SDS011;9318;48.644;9.456;2023-07-31T09:45:33;0.40;;;0.40;;
18383;SDS011;9318;48.644;9.456;2023-07-31T09:48:02;0.38;;;0.38;;
18383;SDS011;9318;48.644;9.456;2023-07-31T09:50:29;0.40;;;0.40;;
18383;SDS011;9318;48.644;9.456;2023-07-31T09:52:56;0.40;;;0.40;;
18383;SDS011;9318;48.644;9.456;2023-07-31T09:55:23;0.30;;;0.30;;
18383;SDS011;9318;48.644;9.456;2023-07-31T09:57:52;0.40;;;0.40;;
18383;SDS011;9318;48.644;9.456;2023-07-31T10:00:21;0.43;;;0.43;;
18383;SDS011;9318;48.644;9.456;2023-07-31T10:02:50;0.40;;;0.40;;
18383;SDS011;9318;48.644;9.456;2023-07-31T10:05:17;0.60;;;0.60;;
18383;SDS011;9318;48.644;9.456;2023-07-31T10:07:48;0.50;;;0.50;;
18383;SDS011;9318;48.644;9.456;2023-07-31T10:10:17;0.60;;;0.60;;
18383;SDS011;9318;48.644;9.456;2023-07-31T10:12:46;0.50;;;0.50;;
18383;SDS011;9318;48.644;9.456;2023-07-31T10:15:16;0.50;;;0.50;;
18383;SDS011;9318;48.644;9.456;2023-07-31T10:17:43;0.50;;;0.50;;
18383;SDS011;9318;48.644;9.456;2023-07-31T10:20:11;0.63;;;0.63;;
18383;SDS011;9318;48.644;9.456;2023-07-31T10:22:38;0.60;;;0.60;;
18383;SDS011;9318;48.644;9.456;2023-07-31T10:25:06;0.60;;;0.60;;
18383;SDS011;9318;48.644;9.456;2023-07-31T10:27:35;0.60;;;0.60;;
18383;SDS011;9318;48.644;9.456;2023-07-31T10:30:02;0.70;;;0.70;;
18383;SDS011;9318;48.644;9.456;2023-07-31T10:32:32;0.55;;;0.55;;
18383;SDS011;9318;48.644;9.456;2023-07-31T10:34:59;0.50;;;0.50;;
18383;SDS011;9318;48.644;9.456;2023-07-31T10:37:28;0.50;;;0.50;;
18383;SDS011;9318;48.644;9.456;2023-07-31T10:39:59;0.60;;;0.60;;
18383;SDS011;9318;48.644;9.456;2023-07-31T10:42:31;0.60;;;0.60;;
18383;SDS011;9318;48.644;9.456;2023-07-31T10:45:00;0.45;;;0.45;;
18383;SDS011;9318;48.644;9.456;2023-07-31T10:47:28;0.60;;;0.60;;
18383;SDS011;9318;48.644;9.456;2023-07-31T10:52:47;0.40;;;0.40;;
18383;SDS011;9318;48.644;9.456;2023-07-31T10:55:16;0.50;;;0.50;;
18383;SDS011;9318;48.644;9.456;2023-07-31T10:57:50;0.50;;;0.50;;
18383;SDS011;9318;48.644;9.456;2023-07-31T11:00:17;0.40;;;0.40;;
18383;SDS011;9318;48.644;9.456;2023-07-31T11:02:55;0.50;;;0.50;;
18383;SDS011;9318;48.644;9.456;2023-07-31T11:05:44;0.40;;;0.40;;
18383;SDS011;9318;48.644;9.456;2023-07-31T11:08:16;0.50;;;0.50;;
18383;SDS011;9318;48.644;9.456;2023-07-31T11:10:46;0.40;;;0.40;;
18383;SDS011;9318;48.644;9.456;2023-07-31T11:13:13;0.60;;;0.60;;
18383;SDS011;9318;48.644;9.456;2023-07-31T11:15:40;0.50;;;0.50;;
18383;SDS011;9318;48.644;9.456;2023-07-31T11:18:07;0.50;;;0.50;;
18383;SDS011;9318;48.644;9.456;2023-07-31T11:20:36;0.50;;;0.50;;
18383;SDS011;9318;48.644;9.456;2023-07-31T11:23:07;0.50;;;0.50;;
18383;SDS011;9318;48.644;9.456;2023-07-31T11:25:35;0.45;;;0.45;;
18383;SDS011;9318;48.644;9.456;2023-07-31T11:28:03;0.40;;;0.40;;
18383;SDS011;9318;48.644;9.456;2023-07-31T11:30:31;0.30;;;0.30;;
18383;SDS011;9318;48.644;9.456;2023-07-31T11:32:59;0.40;;;0.40;;
18383;SDS011;9318;48.644;9.456;2023-07-31T11:35:28;0.50;;;0.50;;
18383;SDS011;9318;48.644;9.456;2023-07-31T11:37:55;0.50;;;0.50;;
18383;SDS011;9318;48.644;9.456;2023-07-31T11:40:23;0.40;;;0.40;;
18383;SDS011;9318;48.644;9.456;2023-07-31T11:42:53;0.50;;;0.50;;
18383;SDS011;9318;48.644;9.456;2023-07-31T11:45:21;0.50;;;0.50;;
18383;SDS011;9318;48.644;9.456;2023-07-31T11:47:50;0.40;;;0.40;;
18383;SDS011;9318;48.644;9.456;2023-07-31T11:50:17;0.40;;;0.40;;
18383;SDS011;9318;48.644;9.456;2023-07-31T11:52:44;0.50;;;0.50;;
18383;SDS011;9318;48.644;9.456;2023-07-31T11:55:15;0.30;;;0.30;;
18383;SDS011;9318;48.644;9.456;2023-07-31T11:57:44;0.40;;;0.40;;
18383;SDS011;9318;48.644;9.456;2023-07-31T12:00:13;0.40;;;0.40;;
18383;SDS011;9318;48.644;9.456;2023-07-31T12:02:41;0.50;;;0.50;;
18383;SDS011;9318;48.644;9.456;2023-07-31T12:05:10;0.50;;;0.50;;
18383;SDS011;9318;48.644;9.456;2023-07-31T12:07:45;0.47;;;0.47;;
18383;SDS011;9318;48.644;9.456;2023-07-31T12:10:22;0.50;;;0.50;;
18383;SDS011;9318;48.644;9.456;2023-07-31T12:13:04;0.50;;;0.50;;
18383;SDS011;9318;48.644;9.456;2023-07-31T12:15:36;0.45;;;0.45;;
18383;SDS011;9318;48.644;9.456;2023-07-31T12:18:05;0.60;;;0.60;;
18383;SDS011;9318;48.644;9.456;2023-07-31T12:20:33;0.50;;;0.50;;
18383;SDS011;9318;48.644;9.456;2023-07-31T12:23:00;0.60;;;0.60;;
18383;SDS011;9318;48.644;9.456;2023-07-31T12:25:31;0.50;;;0.50;;
18383;SDS011;9318;48.644;9.456;2023-07-31T12:28:06;0.70;;;0.70;;
18383;SDS011;9318;48.644;9.456;2023-07-31T12:30:37;0.50;;;0.50;;
18383;SDS011;9318;48.644;9.456;2023-07-31T12:33:05;0.50;;;0.50;;
18383;SDS011;9318;48.644;9.456;2023-07-31T12:35:40;0.55;;;0.55;;
18383;SDS011;9318;48.644;9.456;2023-07-31T12:38:09;0.70;;;0.70;;
18383;SDS011;9318;48.644;9.456;2023-07-31T12:40:37;0.52;;;0.52;;
18383;SDS011;9318;48.644;9.456;2023-07-31T12:43:06;0.60;;;0.60;;
18383;SDS011;9318;48.644;9.456;2023-07-31T12:45:33;0.47;;;0.47;;
18383;SDS011;9318;48.644;9.456;2023-07-31T12:48:01;0.40;;;0.40;;
18383;SDS011;9318;48.644;9.456;2023-07-31T12:50:28;0.60;;;0.60;;
18383;SDS011;9318;48.644;9.456;2023-07-31T12:52:56;0.60;;;0.60;;
18383;SDS011;9318;48.644;9.456;2023-07-31T12:55:23;0.55;;;0.55;;
18383;SDS011;9318;48.644;9.456;2023-07-31T12:57:50;0.52;;;0.52;;
18383;SDS011;9318;48.644;9.456;2023-07-31T13:00:18;0.50;;;0.50;;
18383;SDS011;9318;48.644;9.456;2023-07-31T13:02:45;0.50;;;0.50;;
18383;SDS011;9318;48.644;9.456;2023-07-31T13:05:12;0.60;;;0.60;;
18383;SDS011;9318;48.644;9.456;2023-07-31T13:07:39;0.50;;;0.50;;
18383;SDS011;9318;48.644;9.456;2023-07-31T13:10:06;0.60;;;0.60;;
18383;SDS011;9318;48.644;9.456;2023-07-31T13:12:33;0.50;;;0.50;;
18383;SDS011;9318;48.644;9.456;2023-07-31T13:15:00;0.60;;;0.60;;
18383;SDS011;9318;48.644;9.456;2023-07-31T13:17:28;0.50;;;0.50;;
18383;SDS011;9318;48.644;9.456;2023-07-31T13:19:55;0.50;;;0.50;;
18383;SDS011;9318;48.644;9.456;2023-07-31T13:22:22;0.50;;;0.50;;
18383;SDS011;9318;48.644;9.456;2023-07-31T13:24:48;0.50;;;0.50;;
18383;SDS011;9318;48.644;9.456;2023-07-31T13:27:15;0.60;;;0.60;;
18383;SDS011;9318;48.644;9.456;2023-07-31T13:29:44;0.50;;;0.50;;
18383;SDS011;9318;48.644;9.456;2023-07-31T13:32:11;0.47;;;0.47;;
18383;SDS011;9318;48.644;9.456;2023-07-31T13:34:39;0.50;;;0.50;;
18383;SDS011;9318;48.644;9.456;2023-07-31T13:37:06;0.50;;;0.50;;
18383;SDS011;9318;48.644;9.456;2023-07-31T13:39:33;0.60;;;0.60;;
18383;SDS011;9318;48.644;9.456;2023-07-31T13:42:00;0.60;;;0.60;;
18383;SDS011;9318;48.644;9.456;2023-07-31T13:44:26;0.60;;;0.60;;
18383;SDS011;9318;48.644;9.456;2023-07-31T13:46:53;0.65;;;0.65;;
18383;SDS011;9318;48.644;9.456;2023-07-31T13:49:20;0.50;;;0.50;;
18383;SDS011;9318;48.644;9.456;2023-07-31T13:51:48;0.50;;;0.50;;
18383;SDS011;9318;48.644;9.456;2023-07-31T13:54:15;0.50;;;0.50;;
18383;SDS011;9318;48.644;9.456;2023-07-31T13:56:42;0.50;;;0.50;;
18383;SDS011;9318;48.644;9.456;2023-07-31T13:59:09;0.50;;;0.50;;
18383;SDS011;9318;48.644;9.456;2023-07-31T14:01:36;0.40;;;0.40;;
18383;SDS011;9318;48.644;9.456;2023-07-31T14:04:03;0.60;;;0.60;;
18383;SDS011;9318;48.644;9.456;2023-07-31T14:06:30;0.60;;;0.60;;
18383;SDS011;9318;48.644;9.456;2023-07-31T14:08:58;0.50;;;0.50;;
18383;SDS011;9318;48.644;9.456;2023-07-31T14:11:25;0.50;;;0.50;;
18383;SDS011;9318;48.644;9.456;2023-07-31T14:13:52;0.50;;;0.50;;
18383;SDS011;9318;48.644;9.456;2023-07-31T14:16:19;0.60;;;0.60;;
18383;SDS011;9318;48.644;9.456;2023-07-31T14:18:45;0.50;;;0.50;;
18383;SDS011;9318;48.644;9.456;2023-07-31T14:21:12;0.50;;;0.50;;
18383;SDS011;9318;48.644;9.456;2023-07-31T14:23:39;0.47;;;0.47;;
18383;SDS011;9318;48.644;9.456;2023-07-31T14:26:07;0.50;;;0.50;;
18383;SDS011;9318;48.644;9.456;2023-07-31T14:28:34;0.50;;;0.50;;
18383;SDS011;9318;48.644;9.456;2023-07-31T14:31:03;0.50;;;0.50;;
18383;SDS011;9318;48.644;9.456;2023-07-31T14:33:30;0.50;;;0.50;;
18383;SDS011;9318;48.644;9.456;2023-07-31T14:35:58;0.52;;;0.52;;
18383;SDS011;9318;48.644;9.456;2023-07-31T14:38:25;0.50;;;0.50;;
18383;SDS011;9318;48.644;9.456;2023-07-31T14:40:52;0.40;;;0.40;;
18383;SDS011;9318;48.644;9.456;2023-07-31T14:43:20;0.43;;;0.43;;
18383;SDS011;9318;48.644;9.456;2023-07-31T14:45:47;0.40;;;0.40;;
18383;SDS011;9318;48.644;9.456;2023-07-31T14:48:14;0.38;;;0.38;;
18383;SDS011;9318;48.644;9.456;2023-07-31T14:50:41;0.60;;;0.60;;
18383;SDS011;9318;48.644;9.456;2023-07-31T14:53:08;0.50;;;0.50;;
18383;SDS011;9318;48.644;9.456;2023-07-31T14:55:34;0.60;;;0.60;;
18383;SDS011;9318;48.644;9.456;2023-07-31T14:58:01;0.50;;;0.50;;
18383;SDS011;9318;48.644;9.456;2023-07-31T15:00:29;0.50;;;0.50;;
18383;SDS011;9318;48.644;9.456;2023-07-31T15:02:56;0.40;;;0.40;;
18383;SDS011;9318;48.644;9.456;2023-07-31T15:05:23;0.50;;;0.50;;
18383;SDS011;9318;48.644;9.456;2023-07-31T15:07:50;0.43;;;0.43;;